Time;durP1;ratioP1;P1;durP2;ratioP2;P2;SDS_P1;SDS_P2;PMS_P1;PMS_P2;Temp;Humidity;BMP_temperature;BMP_pressure;BME280_temperature;BME280_humidity;BME280_pressure;Samples;Min_cycle;Max_cycle;Signal;HPM_P1;HPM_P2
2022/09/28 00:01:19;;;;;;;3.70;2.73;;;;;;;8.64;82.93;96540.09;4936248;28;20051;-88
2022/09/28 00:03:49;;;;;;;4.20;2.60;;;;;;;8.65;83.77;96542.47;4956373;28;20074;-88
2022/09/28 00:06:23;;;;;;;3.70;2.47;;;;;;;8.62;83.63;96532.47;4946951;28;20066;-89
2022/09/28 00:08:50;;;;;;;2.90;1.95;;;;;;;8.57;82.68;96519.28;4972578;28;20039;-88
2022/09/28 00:11:21;;;;;;;4.43;2.05;;;;;;;8.66;83.01;96511.91;4972946;28;20035;-88
2022/09/28 00:13:52;;;;;;;3.28;2.03;;;;;;;8.68;83.55;96508.03;4972993;28;20042;-87
2022/09/28 00:16:22;;;;;;;3.47;2.15;;;;;;;8.78;83.20;96516.13;4970947;28;20070;-88
2022/09/28 00:18:50;;;;;;;4.32;2.00;;;;;;;8.71;82.88;96507.59;4967636;28;20053;-88
2022/09/28 00:21:24;;;;;;;3.67;1.90;;;;;;;8.72;82.72;96493.50;4972273;28;20051;-88
2022/09/28 00:24:14;;;;;;;2.95;2.10;;;;;;;8.78;83.03;96502.25;4971768;28;20038;-87
2022/09/28 00:26:54;;;;;;;4.13;1.90;;;;;;;8.79;83.24;96486.34;4959872;28;20070;-87
2022/09/28 00:29:33;;;;;;;2.10;1.90;;;;;;;8.63;nan;96486.22;4969638;28;20039;-89
2022/09/28 00:32:12;;;;;;;3.00;1.75;;;;;;;8.60;83.48;96471.00;4951202;28;20042;-89
2022/09/28 00:34:44;;;;;;;2.53;1.90;;;;;;;8.65;83.70;96479.75;4959729;28;20042;-88
2022/09/28 00:37:13;;;;;;;3.63;2.00;;;;;;;8.65;83.63;96466.69;4943490;28;20045;-87
2022/09/28 00:39:41;;;;;;;1.90;1.70;;;;;;;8.65;82.99;96464.06;4971408;28;20051;-88
2022/09/28 00:42:21;;;;;;;1.98;1.70;;;;;;;8.63;83.19;96457.47;4967667;28;20039;-87
2022/09/28 00:44:50;;;;;;;1.80;1.63;;;;;;;8.59;83.42;96464.97;4955943;28;20125;-87
2022/09/28 00:47:28;;;;;;;2.40;1.80;;;;;;;8.52;83.41;96459.06;4972102;28;20053;-87
2022/09/28 00:50:03;;;;;;;4.63;1.95;;;;;;;8.54;83.68;96451.78;4972227;28;20043;-86
2022/09/28 00:52:41;;;;;;;3.17;2.17;;;;;;;8.47;83.72;96438.84;4956875;28;20061;-87
2022/09/28 00:55:43;;;;;;;2.38;1.90;;;;;;;8.41;83.71;96437.13;4971054;28;20129;-87
2022/09/28 00:58:18;;;;;;;2.13;1.80;;;;;;;8.32;83.83;96438.44;4970915;28;20475;-88
2022/09/28 01:00:45;;;;;;;3.83;1.75;;;;;;;8.29;84.62;96444.13;4971664;28;20050;-86
2022/09/28 01:03:13;;;;;;;4.13;1.77;;;;;;;8.28;85.23;96445.94;4968442;28;20067;-87
2022/09/28 01:05:40;;;;;;;3.63;1.90;;;;;;;8.24;85.92;96418.69;4954509;28;20467;-86
2022/09/28 01:08:09;;;;;;;3.40;1.88;;;;;;;8.24;85.51;96415.28;4953431;28;20047;-86
2022/09/28 01:10:39;;;;;;;2.03;1.73;;;;;;;8.25;85.64;96409.03;4971594;28;20109;-86
2022/09/28 01:13:06;;;;;;;2.42;1.88;;;;;;;8.23;85.84;96411.06;4970266;28;20058;-87
2022/09/28 01:15:48;;;;;;;2.00;1.80;;;;;;;8.17;86.04;96394.50;4971309;28;20046;-88
2022/09/28 01:18:44;;;;;;;2.53;1.63;;;;;;;8.24;85.98;96402.22;4971948;28;20043;-87
2022/09/28 01:21:20;;;;;;;4.13;1.90;;;;;;;8.17;86.14;96391.09;4957177;28;20058;-87
2022/09/28 01:24:29;;;;;;;2.95;1.58;;;;;;;8.21;86.37;96369.50;4972430;28;20043;-86
2022/09/28 01:27:25;;;;;;;3.05;2.10;;;;;;;8.25;85.97;96367.25;4967402;28;20035;-86
2022/09/28 01:30:04;;;;;;;2.05;1.75;;;;;;;8.27;86.14;96368.59;4968982;28;20205;-87
2022/09/28 01:33:05;;;;;;;2.08;1.75;;;;;;;8.31;85.65;96369.72;4970701;28;20101;-87
2022/09/28 01:36:03;;;;;;;2.03;1.83;;;;;;;8.33;85.61;96369.50;4964690;28;20031;-86
2022/09/28 01:38:41;;;;;;;2.33;1.88;;;;;;;8.23;86.20;96354.41;4960666;28;20403;-86
2022/09/28 01:41:09;;;;;;;3.72;1.98;;;;;;;8.26;86.02;96335.66;4970061;28;20061;-87
2022/09/28 01:43:42;;;;;;;2.47;1.75;;;;;;;8.31;85.74;96327.94;4972113;28;20053;-86
2022/09/28 01:46:28;;;;;;;1.85;1.63;;;;;;;8.33;86.03;96332.94;4974884;28;20065;-87
2022/09/28 01:49:03;;;;;;;1.80;1.50;;;;;;;8.27;86.33;96329.41;4971277;28;20047;-88
2022/09/28 01:51:37;;;;;;;2.88;1.58;;;;;;;8.26;87.10;96329.66;4971666;28;20043;-87
2022/09/28 01:54:13;;;;;;;3.72;1.80;;;;;;;8.29;87.24;96323.97;4948833;28;20109;-87
2022/09/28 01:56:55;;;;;;;2.67;1.77;;;;;;;8.42;87.28;96317.75;4949988;28;20059;-87
2022/09/28 01:59:28;;;;;;;1.92;1.70;;;;;;;8.28;87.22;96302.28;4958903;28;20058;-88
2022/09/28 02:02:21;;;;;;;1.98;1.80;;;;;;;8.37;87.39;96315.81;4951828;28;20422;-87
2022/09/28 02:05:17;;;;;;;2.50;1.60;;;;;;;8.24;88.49;96298.53;4975213;28;20066;-87
2022/09/28 02:07:56;;;;;;;2.63;1.50;;;;;;;8.37;88.36;96294.91;4971685;28;20526;-86
2022/09/28 02:10:34;;;;;;;3.40;1.55;;;;;;;8.44;88.21;96297.41;4972977;28;20057;-87
2022/09/28 02:13:12;;;;;;;4.05;1.60;;;;;;;8.39;88.52;96290.25;4956113;28;20047;-87
2022/09/28 02:15:39;;;;;;;3.28;1.60;;;;;;;8.37;88.98;96273.22;4958737;28;20034;-87
2022/09/28 02:18:06;;;;;;;2.03;1.67;;;;;;;8.46;88.71;96279.72;4974592;28;20673;-86
2022/09/28 02:20:37;;;;;;;1.50;1.40;;;;;;;8.42;89.37;96276.75;4958162;28;20038;-88
2022/09/28 02:23:04;;;;;;;1.98;1.55;;;;;;;8.47;89.10;96283.91;4975034;28;20047;-88
2022/09/28 02:25:41;;;;;;;3.88;2.00;;;;;;;8.43;90.05;96269.69;4965195;28;20051;-87
2022/09/28 02:28:14;;;;;;;2.33;1.60;;;;;;;8.30;89.57;96266.28;4966188;28;20047;-87
2022/09/28 02:30:43;;;;;;;2.60;1.40;;;;;;;8.35;89.78;96264.81;4952435;28;20050;-86
2022/09/28 02:33:25;;;;;;;3.45;1.48;;;;;;;8.36;89.78;96274.25;4974718;28;20081;-86
2022/09/28 02:35:53;;;;;;;3.05;1.67;;;;;;;8.50;89.92;96265.94;4956721;28;20043;-85
2022/09/28 02:38:19;;;;;;;1.92;1.52;;;;;;;8.41;89.98;96269.94;4975295;28;20043;-87
2022/09/28 02:41:03;;;;;;;1.60;1.50;;;;;;;8.39;90.28;96268.56;4974926;28;20054;-86
2022/09/28 02:43:55;;;;;;;1.30;1.20;;;;;;;8.31;90.21;96260.03;4976692;28;20038;-86
2022/09/28 02:46:44;;;;;;;;;;;;;;;8.28;90.66;96260.50;4977312;28;20042;-86
2022/09/28 02:49:24;;;;;;;1.75;1.35;;;;;;;8.30;90.89;96263.69;4969111;28;19928;-85
2022/09/28 02:52:25;;;;;;;2.92;1.33;;;;;;;8.44;91.27;96259.00;4936618;28;20468;-86
2022/09/28 02:55:38;;;;;;;2.65;1.30;;;;;;;8.54;90.68;96245.38;4965099;28;20039;-86
2022/09/28 02:58:32;;;;;;;3.83;1.58;;;;;;;8.53;90.25;96233.34;4973710;28;20056;-86
2022/09/28 03:01:33;;;;;;;3.85;1.35;;;;;;;8.37;90.42;96228.81;4973812;28;20386;-86
2022/09/28 03:04:36;;;;;;;2.40;1.50;;;;;;;8.26;91.01;96239.03;4955525;29;20047;-86
2022/09/28 03:07:23;;;;;;;1.58;1.23;;;;;;;8.20;91.87;96234.72;4939152;28;20051;-86
2022/09/28 03:10:05;;;;;;;4.43;1.40;;;;;;;8.26;91.98;96231.19;4972391;28;20050;-86
2022/09/28 03:12:33;;;;;;;3.30;1.40;;;;;;;8.28;91.45;96234.38;4968203;28;20691;-86
2022/09/28 03:15:12;;;;;;;1.92;1.30;;;;;;;8.29;91.27;96225.53;4973634;28;20046;-87
2022/09/28 03:17:39;;;;;;;2.55;1.50;;;;;;;8.32;90.80;96219.03;4949820;29;20403;-87
2022/09/28 03:20:06;;;;;;;1.30;1.20;;;;;;;8.24;90.97;96214.97;4963456;28;20057;-87
2022/09/28 03:22:33;;;;;;;1.60;1.40;;;;;;;8.32;90.79;96209.38;4969673;28;20047;-87
2022/09/28 03:24:59;;;;;;;1.85;1.13;;;;;;;8.17;90.82;96198.63;4959429;28;20035;-87
2022/09/28 03:27:26;;;;;;;2.28;1.30;;;;;;;8.19;91.55;96183.53;4975705;28;20129;-87
2022/09/28 03:29:52;;;;;;;1.55;1.10;;;;;;;8.24;91.47;96180.22;4974933;28;20390;-87
2022/09/28 03:32:19;;;;;;;1.63;1.10;;;;;;;8.14;91.06;96175.59;4974766;28;20051;-88
2022/09/28 03:34:45;;;;;;;1.20;1.10;;;;;;;8.04;91.38;96157.13;4973626;28;20047;-88
2022/09/28 03:37:12;;;;;;;1.27;1.10;;;;;;;7.92;91.85;96151.91;4957637;28;20458;-87
2022/09/28 03:39:39;;;;;;;2.28;1.40;;;;;;;7.95;92.84;96156.66;4974420;28;20050;-89
2022/09/28 03:42:06;;;;;;;2.28;1.00;;;;;;;7.93;92.52;96153.50;4970063;28;20130;-88
2022/09/28 03:44:32;;;;;;;1.33;1.10;;;;;;;7.86;93.22;96147.63;4971924;28;20130;-86
2022/09/28 03:46:59;;;;;;;1.17;1.08;;;;;;;7.89;93.10;96154.19;4972676;28;20051;-88
2022/09/28 03:49:25;;;;;;;2.75;1.30;;;;;;;7.84;93.68;96143.63;4956160;28;20056;-89
2022/09/28 03:51:52;;;;;;;2.33;1.10;;;;;;;7.90;93.21;96142.72;4971668;28;20046;-87
2022/09/28 03:54:38;;;;;;;1.30;1.02;;;;;;;8.03;93.35;96139.84;4972848;28;20525;-88
2022/09/28 03:57:12;;;;;;;3.40;1.20;;;;;;;8.00;92.97;96140.31;4973102;28;20078;-88
2022/09/28 03:59:38;;;;;;;2.20;1.90;;;;;;;7.94;93.47;96128.19;4973455;28;20057;-87
2022/09/28 04:02:05;;;;;;;2.17;1.40;;;;;;;7.89;93.62;96131.47;4975751;28;20503;-86
2022/09/28 04:04:32;;;;;;;1.10;1.00;;;;;;;8.04;94.10;96128.41;4971524;28;20134;-86
2022/09/28 04:06:59;;;;;;;3.72;2.05;;;;;;;8.05;93.26;96127.38;4971740;28;20051;-86
2022/09/28 04:09:25;;;;;;;4.40;2.50;;;;;;;8.17;93.60;96127.34;4972744;28;20061;-86
2022/09/28 04:11:52;;;;;;;3.38;1.70;;;;;;;8.17;93.47;96116.91;4971326;28;20046;-86
2022/09/28 04:14:29;;;;;;;5.10;3.85;;;;;;;8.17;93.57;96122.91;4972995;28;20054;-87
2022/09/28 04:16:56;;;;;;;3.60;1.80;;;;;;;8.17;94.07;96117.69;4972693;28;20054;-88
2022/09/28 04:19:23;;;;;;;4.10;2.53;;;;;;;8.18;93.92;96113.25;4973923;28;20061;-88
2022/09/28 04:21:50;;;;;;;7.00;4.20;;;;;;;8.29;93.11;96108.00;4974536;28;20148;-88
2022/09/28 04:24:19;;;;;;;4.75;2.90;;;;;;;8.29;92.97;96104.59;4960187;28;20541;-88
2022/09/28 04:26:45;;;;;;;5.10;4.60;;;;;;;8.35;92.75;96108.88;4975673;28;20046;-88
2022/09/28 04:29:15;;;;;;;2.20;2.00;;;;;;;8.40;92.04;96097.78;4973802;28;20043;-90
2022/09/28 04:31:49;;;;;;;4.95;4.28;;;;;;;8.34;92.38;96094.25;4972435;28;20039;-87
2022/09/28 04:34:19;;;;;;;2.70;2.20;;;;;;;8.43;92.19;96086.84;4973504;28;20057;-89
2022/09/28 04:36:47;;;;;;;3.67;2.77;;;;;;;8.33;93.19;96085.59;4971940;28;20133;-89
2022/09/28 04:39:18;;;;;;;3.35;2.03;;;;;;;8.40;93.87;96085.50;4971188;28;20069;-88
2022/09/28 04:41:47;;;;;;;4.32;2.72;;;;;;;8.54;92.89;96088.59;4972945;28;20050;-88
2022/09/28 04:44:14;;;;;;;3.13;1.88;;;;;;;8.51;93.01;96081.22;4958963;28;20479;-86
2022/09/28 04:46:41;;;;;;;2.10;1.60;;;;;;;8.60;92.41;96074.59;4967319;28;20073;-86
2022/09/28 04:52:54;;;;;;;2.43;1.67;;;;;;;8.60;92.38;96079.81;4960426;28;20058;-86
2022/09/28 04:55:31;;;;;;;2.60;1.63;;;;;;;8.72;92.97;96072.72;4969092;28;20079;-85
2022/09/28 04:58:01;;;;;;;5.07;2.85;;;;;;;8.61;92.81;96063.09;4971431;28;20058;-86
2022/09/28 05:00:34;;;;;;;4.80;1.90;;;;;;;8.53;92.78;96053.06;4971826;28;20047;-88
2022/09/28 05:03:01;;;;;;;3.28;2.10;;;;;;;8.54;93.21;96055.44;4956143;28;20037;-88
2022/09/28 05:05:28;;;;;;;2.95;1.63;;;;;;;8.55;93.62;96066.66;4972914;28;20043;-88
2022/09/28 05:07:58;;;;;;;2.92;1.88;;;;;;;8.60;93.79;96068.59;4971388;28;20061;-88
2022/09/28 05:10:25;;;;;;;4.10;2.38;;;;;;;8.65;93.29;96055.59;4973017;28;20057;-87
2022/09/28 05:12:52;;;;;;;3.78;1.90;;;;;;;8.67;92.67;96064.00;4961208;28;20079;-88
2022/09/28 05:15:18;;;;;;;3.88;1.83;;;;;;;8.75;92.52;96080.06;4972270;28;20047;-88
2022/09/28 05:17:45;;;;;;;4.47;1.98;;;;;;;8.79;92.40;96070.72;4971990;28;20047;-89
2022/09/28 05:20:12;;;;;;;3.05;1.67;;;;;;;8.89;92.54;96071.94;4946478;28;20781;-88
2022/09/28 05:22:38;;;;;;;2.70;2.22;;;;;;;8.82;92.35;96057.19;4970966;28;20494;-89
2022/09/28 05:25:05;;;;;;;2.70;2.50;;;;;;;8.79;92.93;96062.88;4971308;28;20053;-89
2022/09/28 05:27:32;;;;;;;2.58;1.95;;;;;;;8.83;93.29;96045.69;4969918;28;20049;-88
2022/09/28 05:29:58;;;;;;;2.92;1.35;;;;;;;8.79;93.02;96038.56;4971684;28;20407;-87
2022/09/28 05:32:25;;;;;;;1.80;1.50;;;;;;;8.77;92.86;96027.56;4971517;28;20055;-90
2022/09/28 05:34:51;;;;;;;2.30;1.58;;;;;;;8.82;92.53;96031.06;4967043;28;20050;-89
2022/09/28 05:37:18;;;;;;;1.80;1.40;;;;;;;8.83;92.48;96064.00;4953971;28;20042;-90
2022/09/28 05:39:44;;;;;;;2.60;1.50;;;;;;;8.88;92.87;96065.13;4971018;28;20049;-89
2022/09/28 05:42:11;;;;;;;2.92;1.77;;;;;;;8.95;93.07;96060.53;4954141;28;20047;-89
2022/09/28 05:44:37;;;;;;;3.38;2.00;;;;;;;9.01;92.65;96062.97;4971344;28;20073;-89
2022/09/28 05:47:04;;;;;;;4.50;2.58;;;;;;;8.94;92.72;96054.50;4950997;28;20047;-88
2022/09/28 05:49:31;;;;;;;4.82;3.42;;;;;;;9.00;92.81;96063.22;4971945;28;20042;-89
2022/09/28 05:51:58;;;;;;;5.85;2.97;;;;;;;9.05;92.87;96068.50;4966430;28;20129;-89
2022/09/28 05:54:27;;;;;;;3.10;2.65;;;;;;;9.02;92.97;96061.16;4970448;28;20125;-90
2022/09/28 05:56:54;;;;;;;5.68;2.58;;;;;;;9.02;93.15;96061.94;4971559;28;20494;-91
2022/09/28 05:59:21;;;;;;;3.45;2.70;;;;;;;9.21;94.03;96065.06;4954500;28;20502;-89
2022/09/28 06:01:47;;;;;;;3.28;1.95;;;;;;;9.30;92.75;96071.50;4969013;28;20137;-89
2022/09/28 06:04:15;;;;;;;3.00;2.30;;;;;;;9.18;92.39;96054.31;4968344;28;20054;-89
2022/09/28 06:06:42;;;;;;;5.10;2.60;;;;;;;9.29;92.81;96067.28;4952657;28;20059;-90
2022/09/28 06:09:08;;;;;;;2.45;2.03;;;;;;;9.27;92.79;96064.13;4970610;28;20055;-89
2022/09/28 06:11:35;;;;;;;3.38;1.92;;;;;;;9.33;92.65;96052.69;4979530;28;20509;-90
2022/09/28 06:14:02;;;;;;;3.83;1.83;;;;;;;9.39;92.05;96051.72;4951601;28;20049;-89
2022/09/28 06:16:29;;;;;;;4.93;2.30;;;;;;;9.53;92.08;96061.84;4972252;28;20044;-89
2022/09/28 06:18:56;;;;;;;2.20;1.90;;;;;;;9.61;92.08;96059.59;4975333;28;20042;-90
2022/09/28 06:21:23;;;;;;;2.22;1.83;;;;;;;9.60;91.51;96052.00;4954358;28;20055;-89
2022/09/28 06:23:50;;;;;;;3.35;1.88;;;;;;;9.63;91.17;96068.00;4970138;28;20134;-89
2022/09/28 06:26:18;;;;;;;3.65;1.90;;;;;;;9.75;90.62;96062.66;4971364;28;20049;-89
2022/09/28 06:28:45;;;;;;;4.60;2.30;;;;;;;9.89;90.87;96078.78;4970804;28;20047;-89
2022/09/28 06:31:12;;;;;;;3.15;2.03;;;;;;;9.74;89.72;96079.41;4973902;28;20502;-89
2022/09/28 06:33:40;;;;;;;1.90;1.70;;;;;;;9.79;89.72;96082.06;4973023;28;20047;-90
2022/09/28 06:36:09;;;;;;;4.65;2.22;;;;;;;9.73;89.60;96090.13;4975540;28;20050;-89
2022/09/28 06:38:36;;;;;;;2.35;1.98;;;;;;;9.67;90.55;96091.09;4974704;28;20047;-89
2022/09/28 06:41:04;;;;;;;1.83;1.60;;;;;;;9.55;90.38;96091.19;4974389;28;20054;-89
2022/09/28 06:43:32;;;;;;;2.55;1.73;;;;;;;9.56;90.19;96098.00;4974036;28;20086;-89
2022/09/28 06:46:01;;;;;;;2.35;2.00;;;;;;;9.60;90.56;96104.34;4975863;28;20039;-88
2022/09/28 06:48:28;;;;;;;2.40;1.58;;;;;;;9.46;91.45;96097.84;4974616;28;20046;-89
2022/09/28 06:50:55;;;;;;;2.85;1.70;;;;;;;9.31;92.24;96093.22;4969391;28;20051;-89
2022/09/28 06:53:21;;;;;;;1.85;1.60;;;;;;;9.31;92.68;96091.38;4952465;29;20050;-89
2022/09/28 06:55:48;;;;;;;3.53;2.10;;;;;;;9.33;92.66;96093.75;4961828;28;20085;-90
2022/09/28 06:58:18;;;;;;;3.35;1.92;;;;;;;9.45;92.71;96107.53;4974048;28;20062;-90
2022/09/28 07:00:49;;;;;;;2.55;1.50;;;;;;;9.44;93.34;96105.97;4956996;28;20051;-90
2022/09/28 07:03:21;;;;;;;1.50;1.40;;;;;;;9.43;91.74;96108.81;4964616;28;20073;-91
2022/09/28 07:05:52;;;;;;;3.38;1.60;;;;;;;9.48;91.60;96114.13;4956520;28;20491;-91
2022/09/28 07:08:24;;;;;;;1.05;1.00;;;;;;;9.34;90.91;96101.34;4974267;28;20082;-91
2022/09/28 07:10:55;;;;;;;1.13;1.02;;;;;;;9.34;91.73;96113.66;4974835;28;20047;-91
2022/09/28 07:13:29;;;;;;;1.30;1.20;;;;;;;9.31;92.90;96106.28;4974436;28;20146;-90
2022/09/28 07:16:14;;;;;;;2.05;1.30;;;;;;;9.29;94.35;96116.97;4956703;28;20514;-92
2022/09/28 07:18:41;;;;;;;2.10;1.27;;;;;;;9.35;91.90;96123.88;4976462;28;20070;-88
2022/09/28 07:21:08;;;;;;;2.88;1.52;;;;;;;9.40;92.42;96133.63;4977845;28;20078;-91
2022/09/28 07:23:47;;;;;;;2.63;1.20;;;;;;;9.35;92.75;96123.06;4977128;28;20054;-89
2022/09/28 07:26:21;;;;;;;2.30;1.23;;;;;;;9.42;91.37;96122.94;4977377;28;20047;-89
2022/09/28 07:28:51;;;;;;;2.25;1.02;;;;;;;9.52;91.68;96138.75;4976641;28;20047;-85
2022/09/28 07:31:17;;;;;;;2.20;1.33;;;;;;;9.49;91.82;96149.72;4974576;28;20057;-86
2022/09/28 07:33:45;;;;;;;2.47;1.17;;;;;;;9.70;91.46;96162.06;4974319;28;20414;-87
2022/09/28 07:36:16;;;;;;;2.20;1.30;;;;;;;9.73;90.75;96150.31;4963228;28;20043;-86
2022/09/28 07:38:43;;;;;;;2.05;1.52;;;;;;;9.72;91.22;96144.31;4972017;28;20434;-87
2022/09/28 07:41:15;;;;;;;1.67;1.50;;;;;;;9.89;89.96;96152.88;4972461;28;20485;-86
2022/09/28 07:43:43;;;;;;;2.17;1.40;;;;;;;10.03;89.42;96150.72;4973502;28;20055;-87
2022/09/28 07:46:10;;;;;;;2.58;1.30;;;;;;;10.09;88.75;96151.56;4973661;28;20043;-86
2022/09/28 07:48:41;;;;;;;1.55;1.10;;;;;;;10.09;88.48;96162.84;4973923;28;20082;-87
2022/09/28 07:51:08;;;;;;;1.60;1.50;;;;;;;10.07;88.54;96167.50;4968484;28;20089;-86
2022/09/28 07:53:37;;;;;;;1.48;0.95;;;;;;;10.14;86.65;96177.84;4969942;28;20054;-86
2022/09/28 07:56:08;;;;;;;4.28;1.35;;;;;;;10.03;86.41;96181.34;4971613;28;20046;-87
2022/09/28 07:58:38;;;;;;;3.25;1.73;;;;;;;10.09;82.64;96180.38;4973037;28;20501;-86
2022/09/28 08:01:10;;;;;;;0.90;0.90;;;;;;;10.11;84.17;96183.53;4973465;28;20047;-87
2022/09/28 08:03:38;;;;;;;1.10;1.00;;;;;;;10.21;84.00;96188.91;4974909;28;20047;-86
2022/09/28 08:06:09;;;;;;;1.75;0.90;;;;;;;10.17;82.46;96193.06;4971037;28;20502;-86
2022/09/28 08:08:36;;;;;;;1.15;1.05;;;;;;;10.17;85.55;96193.06;4974221;28;20078;-86
2022/09/28 08:11:06;;;;;;;0.93;0.93;;;;;;;10.31;85.11;96194.28;4966471;28;20055;-85
2022/09/28 08:13:32;;;;;;;2.15;1.08;;;;;;;10.51;79.16;96192.97;4971896;28;20051;-87
2022/09/28 08:16:01;;;;;;;1.10;1.00;;;;;;;10.35;82.13;96205.88;4972757;28;20121;-87
2022/09/28 08:18:28;;;;;;;1.00;0.90;;;;;;;10.30;79.61;96207.66;4974156;28;20051;-85
2022/09/28 08:23:40;;;;;;;1.00;1.00;;;;;;;10.17;80.57;96206.16;4971000;28;20489;-87
2022/09/28 08:26:07;;;;;;;1.02;0.90;;;;;;;10.36;82.05;96223.19;4959793;28;20070;-87
2022/09/28 08:28:42;;;;;;;3.03;1.10;;;;;;;10.30;81.79;96224.16;4973879;28;20043;-86
2022/09/28 08:31:08;;;;;;;1.10;1.00;;;;;;;10.31;80.92;96236.22;4973054;28;20074;-86
2022/09/28 08:33:35;;;;;;;1.00;1.00;;;;;;;10.30;79.48;96239.88;4972545;28;20101;-86
2022/09/28 08:36:05;;;;;;;1.20;1.10;;;;;;;10.16;80.02;96233.38;4969102;28;20137;-86
2022/09/28 08:38:32;;;;;;;1.23;1.05;;;;;;;10.03;80.02;96223.25;4967187;28;20065;-84
2022/09/28 08:41:38;;;;;;;2.45;1.10;;;;;;;10.19;79.84;96233.72;4970130;28;20055;-85
2022/09/28 08:44:22;;;;;;;1.58;1.20;;;;;;;10.24;79.08;96235.59;4948814;28;20110;-86
2022/09/28 08:47:04;;;;;;;1.20;1.10;;;;;;;10.36;78.91;96243.38;4966928;28;20035;-86
2022/09/28 08:49:41;;;;;;;;;;;;;;;10.98;77.82;96237.78;4974604;28;20045;-86
2022/09/28 08:52:24;;;;;;;0.88;0.88;;;;;;;11.22;74.53;96243.53;4967873;28;20374;-85
2022/09/28 08:55:05;;;;;;;1.50;1.40;;;;;;;11.60;77.20;96249.63;4954256;28;20043;-86
2022/09/28 08:57:49;;;;;;;2.90;1.20;;;;;;;11.49;71.99;96246.13;4971848;28;20451;-84
2022/09/28 09:00:32;;;;;;;2.60;1.10;;;;;;;11.31;73.65;96255.16;4945411;28;20052;-85
2022/09/28 09:03:08;;;;;;;1.23;1.15;;;;;;;11.17;76.36;96259.22;4970843;28;20129;-86
2022/09/28 09:06:07;;;;;;;1.13;1.02;;;;;;;11.48;74.16;96255.03;4947616;28;20161;-86
2022/09/28 09:09:14;;;;;;;1.20;1.10;;;;;;;11.34;74.60;96265.16;4969800;28;20537;-85
2022/09/28 09:12:02;;;;;;;1.23;1.10;;;;;;;11.34;76.16;96269.63;4966598;28;20057;-86
2022/09/28 09:14:49;;;;;;;1.15;1.05;;;;;;;11.31;75.07;96270.91;4970103;28;20092;-86
2022/09/28 09:17:46;;;;;;;1.02;1.00;;;;;;;11.13;72.59;96276.50;4967840;28;20046;-87
2022/09/28 09:20:40;;;;;;;1.60;1.17;;;;;;;10.92;71.53;96275.50;4953390;28;20138;-86
2022/09/28 09:23:33;;;;;;;1.83;1.27;;;;;;;10.99;73.92;96270.84;4969539;28;20392;-86
2022/09/28 09:26:20;;;;;;;1.50;1.00;;;;;;;10.89;73.44;96292.50;4962687;28;20835;-87
2022/09/28 09:29:26;;;;;;;2.80;1.10;;;;;;;10.76;72.16;96300.75;4971085;28;20050;-86
2022/09/28 09:32:15;;;;;;;1.20;1.10;;;;;;;10.62;71.59;96299.53;4971670;28;20047;-85
2022/09/28 09:35:13;;;;;;;2.08;1.08;;;;;;;10.67;73.77;96305.59;4969947;28;20046;-86
2022/09/28 09:38:14;;;;;;;0.90;0.90;;;;;;;10.92;69.84;96299.09;4970128;28;20078;-86
2022/09/28 09:41:39;;;;;;;1.35;1.20;;;;;;;11.45;70.80;96308.03;4969399;28;20730;-86
2022/09/28 09:44:23;;;;;;;1.45;1.00;;;;;;;11.85;68.22;96307.63;4921734;28;20082;-86
2022/09/28 09:47:37;;;;;;;1.00;1.00;;;;;;;11.93;67.31;96309.00;4970319;28;20117;-86
2022/09/28 09:50:28;;;;;;;1.50;1.10;;;;;;;11.64;66.84;96314.53;4969354;28;20042;-86
2022/09/28 09:53:23;;;;;;;1.60;1.30;;;;;;;11.23;68.14;96308.09;4964764;28;20042;-85
2022/09/28 09:55:59;;;;;;;2.25;1.25;;;;;;;11.06;70.19;96310.78;4969358;28;20043;-85
2022/09/28 09:58:44;;;;;;;1.10;1.00;;;;;;;10.99;71.18;96313.63;4969708;28;20126;-84
2022/09/28 10:01:17;;;;;;;1.80;1.25;;;;;;;10.79;70.61;96317.81;4969222;28;20046;-85
2022/09/28 10:03:47;;;;;;;1.35;1.23;;;;;;;10.70;70.69;96317.47;4951648;28;20054;-85
2022/09/28 10:06:36;;;;;;;1.20;1.10;;;;;;;10.71;70.09;96319.03;4969728;28;20050;-84
2022/09/28 10:09:12;;;;;;;1.17;1.05;;;;;;;10.63;70.51;96328.13;4969545;28;20137;-85
2022/09/28 10:11:44;;;;;;;1.23;1.15;;;;;;;10.78;70.64;96324.88;4954220;28;20062;-85
2022/09/28 10:14:21;;;;;;;1.40;1.08;;;;;;;10.73;70.50;96322.19;4974275;28;20388;-84
2022/09/28 10:16:52;;;;;;;1.33;1.20;;;;;;;11.01;70.48;96333.56;4973046;28;20098;-84
2022/09/28 10:19:32;;;;;;;;;;;;;;;11.52;68.77;96338.31;4973151;28;20093;-85
2022/09/28 10:22:03;;;;;;;1.20;1.10;;;;;;;12.24;68.87;96341.56;4973235;28;19922;-86
2022/09/28 10:24:37;;;;;;;1.38;1.02;;;;;;;12.24;65.74;96338.94;4972815;28;20053;-85
2022/09/28 10:27:15;;;;;;;1.42;1.00;;;;;;;12.12;66.30;96333.06;4972122;28;20045;-85
2022/09/28 10:29:53;;;;;;;1.13;1.02;;;;;;;11.86;65.65;96330.22;4972607;28;20042;-85
2022/09/28 10:32:26;;;;;;;1.00;1.00;;;;;;;11.73;61.85;96341.91;4972318;28;20050;-85
2022/09/28 10:35:15;;;;;;;1.98;0.95;;;;;;;11.77;63.02;96344.84;4971326;28;20046;-85
2022/09/28 10:37:51;;;;;;;0.93;0.93;;;;;;;11.75;63.92;96349.53;4972970;28;20402;-86
2022/09/28 10:40:46;;;;;;;2.22;1.35;;;;;;;11.70;63.57;96350.28;4971979;28;20514;-85
2022/09/28 10:43:33;;;;;;;1.67;1.20;;;;;;;11.69;64.95;96353.94;4972227;28;20121;-85
2022/09/28 10:46:06;;;;;;;1.38;1.20;;;;;;;11.84;65.47;96353.34;4948987;28;20391;-85
2022/09/28 10:48:50;;;;;;;1.67;1.30;;;;;;;12.14;64.15;96357.25;4974121;28;20043;-85
2022/09/28 10:51:17;;;;;;;1.55;1.10;;;;;;;12.43;62.63;96353.25;4970839;28;20100;-85
2022/09/28 10:54:02;;;;;;;1.75;1.30;;;;;;;12.81;65.89;96352.13;4965936;28;20434;-86
2022/09/28 10:56:36;;;;;;;1.75;1.02;;;;;;;12.93;64.28;96346.69;4970350;28;20049;-85
2022/09/28 10:59:23;;;;;;;1.50;1.40;;;;;;;13.38;65.20;96326.88;4952847;28;20649;-85
2022/09/28 11:02:17;;;;;;;2.50;1.33;;;;;;;13.39;57.08;96338.97;4971915;28;20039;-86
2022/09/28 11:04:54;;;;;;;1.60;1.10;;;;;;;13.82;61.68;96342.97;4972714;28;20046;-86
2022/09/28 11:07:31;;;;;;;1.17;1.10;;;;;;;13.93;61.84;96344.56;4971343;28;20057;-86
2022/09/28 11:10:00;;;;;;;1.15;1.05;;;;;;;13.74;58.50;96342.72;4970576;28;20047;-86
2022/09/28 11:12:42;;;;;;;1.58;1.20;;;;;;;13.39;57.51;96333.69;4969679;28;20488;-86
2022/09/28 11:15:24;;;;;;;1.70;1.17;;;;;;;13.07;59.10;96342.53;4971225;28;20474;-86
2022/09/28 11:17:51;;;;;;;1.95;1.65;;;;;;;12.78;60.16;96325.56;4972290;28;20043;-86
2022/09/28 11:20:24;;;;;;;2.60;1.20;;;;;;;12.64;57.61;96334.94;4973102;28;20039;-87
2022/09/28 11:23:15;;;;;;;1.85;1.05;;;;;;;12.69;61.31;96329.72;4972194;28;20541;-86
2022/09/28 11:25:42;;;;;;;0.90;0.90;;;;;;;13.11;59.35;96330.44;4964083;28;20048;-87
2022/09/28 11:28:23;;;;;;;1.02;0.93;;;;;;;13.34;56.17;96328.41;4971955;28;20047;-86
2022/09/28 11:30:52;;;;;;;;;;;;;;;13.58;58.07;96332.16;4971490;28;20053;-86
2022/09/28 11:33:29;;;;;;;1.25;1.10;;;;;;;13.57;56.22;96320.03;4971323;28;19940;-85
2022/09/28 11:36:17;;;;;;;2.22;1.10;;;;;;;13.62;56.59;96329.81;4971406;28;20839;-86
2022/09/28 11:39:31;;;;;;;2.40;1.00;;;;;;;13.80;54.28;96325.88;4972699;28;20038;-86
2022/09/28 11:42:16;;;;;;;2.55;1.10;;;;;;;13.58;57.28;96323.47;4971974;28;20047;-86
2022/09/28 11:44:48;;;;;;;0.93;0.90;;;;;;;13.39;57.29;96325.81;4970393;28;20051;-86
2022/09/28 11:47:40;;;;;;;2.80;1.15;;;;;;;13.19;57.20;96338.88;4971906;28;20043;-85
2022/09/28 11:50:43;;;;;;;1.15;0.70;;;;;;;13.19;55.81;96336.22;4969508;28;20053;-86
2022/09/28 11:53:29;;;;;;;0.85;0.80;;;;;;;13.06;57.62;96326.97;4968668;28;20046;-85
2022/09/28 11:56:21;;;;;;;1.10;0.90;;;;;;;13.18;56.52;96340.72;4955988;28;20062;-86
2022/09/28 11:58:58;;;;;;;1.02;0.90;;;;;;;13.51;55.75;96329.00;4971235;28;20039;-86
2022/09/28 12:01:52;;;;;;;2.22;1.02;;;;;;;13.83;54.71;96341.13;4972317;28;20038;-84
2022/09/28 12:04:37;;;;;;;2.40;0.73;;;;;;;13.27;51.62;96339.19;4970201;28;20053;-87
2022/09/28 12:07:30;;;;;;;1.70;0.80;;;;;;;13.29;53.84;96336.31;4969865;28;20050;-86
2022/09/28 12:10:16;;;;;;;1.20;0.68;;;;;;;13.34;53.84;96338.94;4969183;28;20398;-86
2022/09/28 12:12:53;;;;;;;1.25;0.80;;;;;;;13.62;54.79;96338.50;4965172;28;20038;-86
2022/09/28 12:15:29;;;;;;;0.70;0.70;;;;;;;13.88;52.21;96333.25;4971852;28;20046;-86
2022/09/28 12:18:53;;;;;;;0.60;0.60;;;;;;;14.20;55.87;96336.38;4952997;28;20098;-86
2022/09/28 12:21:23;;;;;;;1.95;0.82;;;;;;;14.29;52.11;96343.78;4962088;28;20046;-86
2022/09/28 12:23:59;;;;;;;0.63;0.55;;;;;;;14.23;50.57;96337.72;4969910;28;20062;-87
2022/09/28 12:26:45;;;;;;;0.95;0.63;;;;;;;14.14;52.86;96342.72;4971723;28;20802;-85